sensor_id;sensor_type;location;lat;lon;timestamp;P1;durP1;ratioP1;P2;durP2;ratioP2
62711;SDS011;48772;55.586;37.730;2022-08-07T00:01:58;8.70;;;7.75;;
62711;SDS011;48772;55.586;37.730;2022-08-07T00:04:24;14.90;;;8.02;;
62711;SDS011;48772;55.586;37.730;2022-08-07T00:06:50;13.82;;;8.35;;
62711;SDS011;48772;55.586;37.730;2022-08-07T00:09:16;9.57;;;8.38;;
62711;SDS011;48772;55.586;37.730;2022-08-07T00:11:41;13.55;;;7.97;;
62711;SDS011;48772;55.586;37.730;2022-08-07T00:14:07;9.68;;;8.00;;
62711;SDS011;48772;55.586;37.730;2022-08-07T00:16:33;16.83;;;8.82;;
62711;SDS011;48772;55.586;37.730;2022-08-07T00:18:59;13.05;;;8.75;;
62711;SDS011;48772;55.586;37.730;2022-08-07T00:21:25;10.68;;;8.80;;
62711;SDS011;48772;55.586;37.730;2022-08-07T00:23:50;11.77;;;8.60;;
62711;SDS011;48772;55.586;37.730;2022-08-07T00:26:16;9.10;;;7.97;;
62711;SDS011;48772;55.586;37.730;2022-08-07T00:28:42;10.30;;;7.97;;
62711;SDS011;48772;55.586;37.730;2022-08-07T00:31:09;13.00;;;8.30;;
62711;SDS011;48772;55.586;37.730;2022-08-07T00:33:37;10.82;;;8.23;;
62711;SDS011;48772;55.586;37.730;2022-08-07T00:36:05;13.25;;;8.30;;
62711;SDS011;48772;55.586;37.730;2022-08-07T00:38:32;10.55;;;7.85;;
62711;SDS011;48772;55.586;37.730;2022-08-07T00:41:01;8.25;;;7.07;;
62711;SDS011;48772;55.586;37.730;2022-08-07T00:43:28;8.35;;;7.45;;
62711;SDS011;48772;55.586;37.730;2022-08-07T00:45:54;15.40;;;7.43;;
62711;SDS011;48772;55.586;37.730;2022-08-07T00:48:20;11.73;;;7.63;;
62711;SDS011;48772;55.586;37.730;2022-08-07T00:50:45;16.27;;;8.10;;
62711;SDS011;48772;55.586;37.730;2022-08-07T00:53:11;12.02;;;7.22;;
62711;SDS011;48772;55.586;37.730;2022-08-07T00:55:37;15.95;;;7.95;;
62711;SDS011;48772;55.586;37.730;2022-08-07T00:58:03;11.93;;;7.35;;
62711;SDS011;48772;55.586;37.730;2022-08-07T01:00:29;9.10;;;6.97;;
62711;SDS011;48772;55.586;37.730;2022-08-07T01:02:55;11.85;;;7.35;;
62711;SDS011;48772;55.586;37.730;2022-08-07T01:05:21;16.73;;;7.68;;
62711;SDS011;48772;55.586;37.730;2022-08-07T01:07:47;14.93;;;7.18;;
62711;SDS011;48772;55.586;37.730;2022-08-07T01:10:13;11.15;;;7.70;;
62711;SDS011;48772;55.586;37.730;2022-08-07T01:12:40;11.93;;;7.10;;
62711;SDS011;48772;55.586;37.730;2022-08-07T01:15:07;12.35;;;7.18;;
62711;SDS011;48772;55.586;37.730;2022-08-07T01:17:34;13.98;;;7.50;;
62711;SDS011;48772;55.586;37.730;2022-08-07T01:20:03;10.82;;;7.47;;
62711;SDS011;48772;55.586;37.730;2022-08-07T01:22:32;9.13;;;7.65;;
62711;SDS011;48772;55.586;37.730;2022-08-07T01:24:59;14.07;;;7.07;;
62711;SDS011;48772;55.586;37.730;2022-08-07T01:27:25;11.68;;;7.47;;
62711;SDS011;48772;55.586;37.730;2022-08-07T01:29:52;10.30;;;7.20;;
62711;SDS011;48772;55.586;37.730;2022-08-07T01:32:20;14.07;;;7.50;;
62711;SDS011;48772;55.586;37.730;2022-08-07T01:34:46;14.70;;;7.22;;
62711;SDS011;48772;55.586;37.730;2022-08-07T01:37:13;10.38;;;7.43;;
62711;SDS011;48772;55.586;37.730;2022-08-07T01:39:45;13.88;;;7.07;;
62711;SDS011;48772;55.586;37.730;2022-08-07T01:42:33;14.95;;;7.30;;
62711;SDS011;48772;55.586;37.730;2022-08-07T01:45:02;11.73;;;7.63;;
62711;SDS011;48772;55.586;37.730;2022-08-07T01:47:29;10.27;;;7.28;;
62711;SDS011;48772;55.586;37.730;2022-08-07T01:49:55;15.32;;;7.40;;
62711;SDS011;48772;55.586;37.730;2022-08-07T01:52:24;9.05;;;7.20;;
62711;SDS011;48772;55.586;37.730;2022-08-07T01:54:51;9.60;;;7.50;;
62711;SDS011;48772;55.586;37.730;2022-08-07T01:57:28;12.02;;;7.32;;
62711;SDS011;48772;55.586;37.730;2022-08-07T02:02:37;12.25;;;7.63;;
62711;SDS011;48772;55.586;37.730;2022-08-07T02:05:09;11.55;;;7.78;;
62711;SDS011;48772;55.586;37.730;2022-08-07T02:07:48;8.07;;;7.28;;
62711;SDS011;48772;55.586;37.730;2022-08-07T02:10:18;7.95;;;6.60;;
62711;SDS011;48772;55.586;37.730;2022-08-07T02:15:24;7.68;;;6.57;;
62711;SDS011;48772;55.586;37.730;2022-08-07T02:17:52;11.38;;;7.30;;
62711;SDS011;48772;55.586;37.730;2022-08-07T02:20:19;8.73;;;6.65;;
62711;SDS011;48772;55.586;37.730;2022-08-07T02:22:46;12.55;;;6.65;;
62711;SDS011;48772;55.586;37.730;2022-08-07T02:25:14;13.80;;;7.45;;
62711;SDS011;48772;55.586;37.730;2022-08-07T02:27:45;11.70;;;6.93;;
62711;SDS011;48772;55.586;37.730;2022-08-07T02:30:13;12.90;;;7.20;;
62711;SDS011;48772;55.586;37.730;2022-08-07T02:32:39;11.13;;;6.60;;
62711;SDS011;48772;55.586;37.730;2022-08-07T02:35:06;15.10;;;6.80;;
62711;SDS011;48772;55.586;37.730;2022-08-07T02:37:36;9.88;;;6.50;;
62711;SDS011;48772;55.586;37.730;2022-08-07T02:40:06;8.13;;;6.28;;
62711;SDS011;48772;55.586;37.730;2022-08-07T02:42:33;13.73;;;6.53;;
62711;SDS011;48772;55.586;37.730;2022-08-07T02:45:02;10.30;;;6.32;;
62711;SDS011;48772;55.586;37.730;2022-08-07T02:47:31;11.98;;;6.47;;
62711;SDS011;48772;55.586;37.730;2022-08-07T02:50:06;11.60;;;6.53;;
62711;SDS011;48772;55.586;37.730;2022-08-07T02:52:37;17.50;;;7.70;;
62711;SDS011;48772;55.586;37.730;2022-08-07T02:55:10;9.35;;;7.10;;
62711;SDS011;48772;55.586;37.730;2022-08-07T02:57:40;16.63;;;7.43;;
62711;SDS011;48772;55.586;37.730;2022-08-07T03:00:08;11.85;;;7.40;;
62711;SDS011;48772;55.586;37.730;2022-08-07T03:02:34;13.30;;;7.35;;
62711;SDS011;48772;55.586;37.730;2022-08-07T03:05:03;14.48;;;7.00;;
62711;SDS011;48772;55.586;37.730;2022-08-07T03:07:31;11.13;;;6.50;;
62711;SDS011;48772;55.586;37.730;2022-08-07T03:09:57;10.95;;;6.70;;
62711;SDS011;48772;55.586;37.730;2022-08-07T03:12:24;7.93;;;5.90;;
62711;SDS011;48772;55.586;37.730;2022-08-07T03:14:53;8.05;;;6.57;;
62711;SDS011;48772;55.586;37.730;2022-08-07T03:17:23;7.85;;;5.90;;
62711;SDS011;48772;55.586;37.730;2022-08-07T03:19:50;8.82;;;5.75;;
62711;SDS011;48772;55.586;37.730;2022-08-07T03:22:18;7.03;;;6.03;;
62711;SDS011;48772;55.586;37.730;2022-08-07T03:24:48;7.88;;;6.35;;
62711;SDS011;48772;55.586;37.730;2022-08-07T03:27:14;7.82;;;6.15;;
62711;SDS011;48772;55.586;37.730;2022-08-07T03:29:45;13.38;;;6.45;;
62711;SDS011;48772;55.586;37.730;2022-08-07T03:32:13;11.90;;;6.32;;
62711;SDS011;48772;55.586;37.730;2022-08-07T03:34:44;8.98;;;6.50;;
62711;SDS011;48772;55.586;37.730;2022-08-07T03:37:12;17.10;;;6.28;;
62711;SDS011;48772;55.586;37.730;2022-08-07T03:39:42;12.30;;;6.75;;
62711;SDS011;48772;55.586;37.730;2022-08-07T03:42:12;8.55;;;6.07;;
62711;SDS011;48772;55.586;37.730;2022-08-07T03:44:39;8.63;;;6.20;;
62711;SDS011;48772;55.586;37.730;2022-08-07T03:47:07;8.68;;;6.25;;
62711;SDS011;48772;55.586;37.730;2022-08-07T03:49:35;9.02;;;6.20;;
62711;SDS011;48772;55.586;37.730;2022-08-07T03:52:01;8.18;;;6.18;;
62711;SDS011;48772;55.586;37.730;2022-08-07T03:54:30;11.20;;;6.15;;
62711;SDS011;48772;55.586;37.730;2022-08-07T03:56:56;12.25;;;6.70;;
62711;SDS011;48772;55.586;37.730;2022-08-07T03:59:22;7.68;;;5.70;;
62711;SDS011;48772;55.586;37.730;2022-08-07T04:01:50;12.60;;;6.32;;
62711;SDS011;48772;55.586;37.730;2022-08-07T04:04:21;8.35;;;6.05;;
62711;SDS011;48772;55.586;37.730;2022-08-07T04:06:51;8.40;;;5.35;;
62711;SDS011;48772;55.586;37.730;2022-08-07T04:09:19;8.38;;;6.18;;
62711;SDS011;48772;55.586;37.730;2022-08-07T04:11:47;12.02;;;6.13;;
62711;SDS011;48772;55.586;37.730;2022-08-07T04:14:14;11.25;;;6.25;;
62711;SDS011;48772;55.586;37.730;2022-08-07T04:16:40;10.32;;;6.22;;
62711;SDS011;48772;55.586;37.730;2022-08-07T04:19:07;10.90;;;6.13;;
62711;SDS011;48772;55.586;37.730;2022-08-07T04:21:33;11.95;;;6.43;;
62711;SDS011;48772;55.586;37.730;2022-08-07T04:24:01;10.73;;;6.40;;
62711;SDS011;48772;55.586;37.730;2022-08-07T04:26:28;7.35;;;5.80;;
62711;SDS011;48772;55.586;37.730;2022-08-07T04:28:55;9.27;;;6.18;;
62711;SDS011;48772;55.586;37.730;2022-08-07T04:31:24;9.20;;;6.43;;
62711;SDS011;48772;55.586;37.730;2022-08-07T04:33:50;9.82;;;5.75;;
62711;SDS011;48772;55.586;37.730;2022-08-07T04:36:16;11.05;;;5.88;;
62711;SDS011;48772;55.586;37.730;2022-08-07T04:38:42;9.30;;;5.88;;
62711;SDS011;48772;55.586;37.730;2022-08-07T04:41:09;8.98;;;6.05;;
62711;SDS011;48772;55.586;37.730;2022-08-07T04:43:41;11.38;;;6.50;;
62711;SDS011;48772;55.586;37.730;2022-08-07T04:46:22;8.98;;;5.97;;
62711;SDS011;48772;55.586;37.730;2022-08-07T04:57:01;9.90;;;6.45;;
62711;SDS011;48772;55.586;37.730;2022-08-07T05:15:55;17.15;;;6.43;;
62711;SDS011;48772;55.586;37.730;2022-08-07T05:18:26;8.93;;;6.50;;
62711;SDS011;48772;55.586;37.730;2022-08-07T05:20:58;13.07;;;6.30;;
62711;SDS011;48772;55.586;37.730;2022-08-07T05:26:19;11.23;;;6.55;;
62711;SDS011;48772;55.586;37.730;2022-08-07T05:28:50;11.60;;;6.68;;
62711;SDS011;48772;55.586;37.730;2022-08-07T05:31:23;10.18;;;6.40;;
62711;SDS011;48772;55.586;37.730;2022-08-07T05:33:51;11.43;;;6.10;;
62711;SDS011;48772;55.586;37.730;2022-08-07T05:36:19;11.07;;;6.15;;
62711;SDS011;48772;55.586;37.730;2022-08-07T05:38:47;13.40;;;6.00;;
62711;SDS011;48772;55.586;37.730;2022-08-07T05:41:15;11.02;;;5.78;;
62711;SDS011;48772;55.586;37.730;2022-08-07T05:43:43;14.40;;;6.18;;
62711;SDS011;48772;55.586;37.730;2022-08-07T05:46:13;6.85;;;5.60;;
62711;SDS011;48772;55.586;37.730;2022-08-07T05:48:41;8.40;;;6.40;;
62711;SDS011;48772;55.586;37.730;2022-08-07T05:51:08;12.45;;;6.10;;
62711;SDS011;48772;55.586;37.730;2022-08-07T05:53:35;10.70;;;6.03;;
62711;SDS011;48772;55.586;37.730;2022-08-07T05:56:02;13.32;;;5.70;;
62711;SDS011;48772;55.586;37.730;2022-08-07T05:58:31;11.10;;;5.82;;
62711;SDS011;48772;55.586;37.730;2022-08-07T06:00:59;11.27;;;5.78;;
62711;SDS011;48772;55.586;37.730;2022-08-07T06:03:26;14.50;;;5.70;;
62711;SDS011;48772;55.586;37.730;2022-08-07T06:05:55;11.57;;;5.53;;
62711;SDS011;48772;55.586;37.730;2022-08-07T06:08:24;9.70;;;5.63;;
62711;SDS011;48772;55.586;37.730;2022-08-07T06:10:50;12.75;;;5.10;;
62711;SDS011;48772;55.586;37.730;2022-08-07T06:13:17;8.98;;;5.15;;
62711;SDS011;48772;55.586;37.730;2022-08-07T06:15:43;11.52;;;5.20;;
62711;SDS011;48772;55.586;37.730;2022-08-07T06:18:18;7.60;;;5.10;;
62711;SDS011;48772;55.586;37.730;2022-08-07T06:20:46;8.30;;;5.40;;
62711;SDS011;48772;55.586;37.730;2022-08-07T06:23:13;7.68;;;4.93;;
62711;SDS011;48772;55.586;37.730;2022-08-07T06:25:40;7.70;;;5.10;;
62711;SDS011;48772;55.586;37.730;2022-08-07T06:28:08;7.18;;;5.38;;
62711;SDS011;48772;55.586;37.730;2022-08-07T06:30:35;8.68;;;5.10;;
62711;SDS011;48772;55.586;37.730;2022-08-07T06:33:09;9.48;;;5.10;;
62711;SDS011;48772;55.586;37.730;2022-08-07T06:35:35;9.68;;;5.10;;
62711;SDS011;48772;55.586;37.730;2022-08-07T06:38:04;12.05;;;4.78;;
62711;SDS011;48772;55.586;37.730;2022-08-07T06:40:48;9.05;;;5.18;;
62711;SDS011;48772;55.586;37.730;2022-08-07T06:43:18;18.92;;;5.30;;
62711;SDS011;48772;55.586;37.730;2022-08-07T06:46:05;11.38;;;4.72;;
62711;SDS011;48772;55.586;37.730;2022-08-07T06:48:33;17.98;;;5.05;;
62711;SDS011;48772;55.586;37.730;2022-08-07T06:51:00;15.98;;;5.45;;
62711;SDS011;48772;55.586;37.730;2022-08-07T06:53:30;13.25;;;4.97;;
62711;SDS011;48772;55.586;37.730;2022-08-07T06:56:05;11.27;;;4.85;;
62711;SDS011;48772;55.586;37.730;2022-08-07T06:58:36;12.00;;;5.20;;
62711;SDS011;48772;55.586;37.730;2022-08-07T07:01:10;9.20;;;4.60;;
62711;SDS011;48772;55.586;37.730;2022-08-07T07:03:37;8.18;;;4.45;;
62711;SDS011;48772;55.586;37.730;2022-08-07T07:06:06;6.75;;;4.40;;
62711;SDS011;48772;55.586;37.730;2022-08-07T07:08:33;11.55;;;4.50;;
62711;SDS011;48772;55.586;37.730;2022-08-07T07:11:00;8.68;;;4.22;;
62711;SDS011;48772;55.586;37.730;2022-08-07T07:13:30;12.77;;;3.90;;
62711;SDS011;48772;55.586;37.730;2022-08-07T07:16:00;12.00;;;4.43;;
62711;SDS011;48772;55.586;37.730;2022-08-07T07:18:33;6.72;;;4.30;;
62711;SDS011;48772;55.586;37.730;2022-08-07T07:21:11;7.65;;;4.10;;
62711;SDS011;48772;55.586;37.730;2022-08-07T07:23:43;9.13;;;4.05;;
62711;SDS011;48772;55.586;37.730;2022-08-07T07:26:10;9.65;;;4.18;;
62711;SDS011;48772;55.586;37.730;2022-08-07T07:31:32;9.23;;;3.85;;
62711;SDS011;48772;55.586;37.730;2022-08-07T07:34:05;7.10;;;4.13;;
62711;SDS011;48772;55.586;37.730;2022-08-07T07:36:33;6.38;;;3.90;;
62711;SDS011;48772;55.586;37.730;2022-08-07T07:39:02;7.50;;;3.58;;
62711;SDS011;48772;55.586;37.730;2022-08-07T07:41:28;3.58;;;2.65;;
62711;SDS011;48772;55.586;37.730;2022-08-07T07:43:58;14.60;;;3.75;;
62711;SDS011;48772;55.586;37.730;2022-08-07T07:46:33;6.80;;;3.25;;
62711;SDS011;48772;55.586;37.730;2022-08-07T07:49:01;6.18;;;3.80;;
62711;SDS011;48772;55.586;37.730;2022-08-07T07:51:29;9.15;;;3.80;;
62711;SDS011;48772;55.586;37.730;2022-08-07T07:53:56;10.68;;;3.58;;
62711;SDS011;48772;55.586;37.730;2022-08-07T07:56:24;5.22;;;3.80;;
62711;SDS011;48772;55.586;37.730;2022-08-07T07:58:52;5.20;;;3.40;;
62711;SDS011;48772;55.586;37.730;2022-08-07T08:01:20;5.40;;;3.40;;
62711;SDS011;48772;55.586;37.730;2022-08-07T08:03:48;4.90;;;3.25;;
62711;SDS011;48772;55.586;37.730;2022-08-07T08:06:15;9.45;;;4.05;;
62711;SDS011;48772;55.586;37.730;2022-08-07T08:08:43;8.18;;;3.58;;
62711;SDS011;48772;55.586;37.730;2022-08-07T08:11:11;6.72;;;3.30;;
62711;SDS011;48772;55.586;37.730;2022-08-07T08:13:39;9.13;;;3.80;;
62711;SDS011;48772;55.586;37.730;2022-08-07T08:16:07;5.05;;;3.30;;
62711;SDS011;48772;55.586;37.730;2022-08-07T08:18:36;11.27;;;3.55;;
62711;SDS011;48772;55.586;37.730;2022-08-07T08:21:02;8.30;;;3.45;;
62711;SDS011;48772;55.586;37.730;2022-08-07T08:23:30;9.32;;;3.80;;
62711;SDS011;48772;55.586;37.730;2022-08-07T08:26:17;7.20;;;3.88;;
62711;SDS011;48772;55.586;37.730;2022-08-07T08:29:02;7.70;;;3.65;;
62711;SDS011;48772;55.586;37.730;2022-08-07T08:31:32;12.35;;;3.85;;
62711;SDS011;48772;55.586;37.730;2022-08-07T08:34:01;7.82;;;3.70;;
62711;SDS011;48772;55.586;37.730;2022-08-07T08:36:31;10.85;;;3.63;;
62711;SDS011;48772;55.586;37.730;2022-08-07T08:38:58;4.68;;;3.50;;
62711;SDS011;48772;55.586;37.730;2022-08-07T08:47:15;9.85;;;3.08;;
62711;SDS011;48772;55.586;37.730;2022-08-07T08:49:57;6.15;;;3.30;;
62711;SDS011;48772;55.586;37.730;2022-08-07T08:52:37;8.07;;;3.58;;
62711;SDS011;48772;55.586;37.730;2022-08-07T08:58:16;3.45;;;2.70;;
62711;SDS011;48772;55.586;37.730;2022-08-07T09:00:50;9.35;;;3.88;;
62711;SDS011;48772;55.586;37.730;2022-08-07T09:03:23;6.97;;;3.53;;
62711;SDS011;48772;55.586;37.730;2022-08-07T09:05:57;5.50;;;3.00;;
62711;SDS011;48772;55.586;37.730;2022-08-07T09:11:38;9.98;;;3.35;;
62711;SDS011;48772;55.586;37.730;2022-08-07T09:34:28;3.92;;;3.25;;
62711;SDS011;48772;55.586;37.730;2022-08-07T09:39:44;6.80;;;3.75;;
62711;SDS011;48772;55.586;37.730;2022-08-07T09:50:21;11.98;;;4.22;;
62711;SDS011;48772;55.586;37.730;2022-08-07T09:53:01;5.22;;;3.78;;
62711;SDS011;48772;55.586;37.730;2022-08-07T10:01:38;7.45;;;3.47;;
62711;SDS011;48772;55.586;37.730;2022-08-07T10:10:06;9.10;;;3.65;;
62711;SDS011;48772;55.586;37.730;2022-08-07T10:13:22;10.65;;;4.30;;
62711;SDS011;48772;55.586;37.730;2022-08-07T10:22:05;6.15;;;3.58;;
62711;SDS011;48772;55.586;37.730;2022-08-07T10:24:55;15.27;;;4.00;;
62711;SDS011;48772;55.586;37.730;2022-08-07T10:27:40;8.70;;;6.05;;
62711;SDS011;48772;55.586;37.730;2022-08-07T10:30:12;13.45;;;5.60;;
62711;SDS011;48772;55.586;37.730;2022-08-07T10:32:51;9.25;;;3.90;;
62711;SDS011;48772;55.586;37.730;2022-08-07T10:41:35;6.25;;;3.28;;
62711;SDS011;48772;55.586;37.730;2022-08-07T10:44:11;7.95;;;3.10;;
62711;SDS011;48772;55.586;37.730;2022-08-07T10:46:52;8.52;;;3.63;;
62711;SDS011;48772;55.586;37.730;2022-08-07T10:49:22;8.90;;;3.45;;
62711;SDS011;48772;55.586;37.730;2022-08-07T10:52:05;8.52;;;3.33;;
62711;SDS011;48772;55.586;37.730;2022-08-07T10:54:47;8.80;;;3.78;;
62711;SDS011;48772;55.586;37.730;2022-08-07T11:00:11;8.70;;;3.30;;
62711;SDS011;48772;55.586;37.730;2022-08-07T11:10:46;2.70;;;2.47;;
62711;SDS011;48772;55.586;37.730;2022-08-07T11:13:51;6.15;;;3.08;;
62711;SDS011;48772;55.586;37.730;2022-08-07T11:16:53;9.63;;;3.45;;
62711;SDS011;48772;55.586;37.730;2022-08-07T11:19:48;8.50;;;3.13;;
62711;SDS011;48772;55.586;37.730;2022-08-07T11:23:03;7.55;;;3.17;;
62711;SDS011;48772;55.586;37.730;2022-08-07T11:26:12;8.23;;;3.10;;
62711;SDS011;48772;55.586;37.730;2022-08-07T11:29:13;11.43;;;3.20;;
62711;SDS011;48772;55.586;37.730;2022-08-07T11:34:59;6.18;;;2.80;;
62711;SDS011;48772;55.586;37.730;2022-08-07T11:40:58;6.80;;;3.00;;
62711;SDS011;48772;55.586;37.730;2022-08-07T11:43:29;5.57;;;3.00;;
62711;SDS011;48772;55.586;37.730;2022-08-07T11:49:15;5.38;;;3.05;;
62711;SDS011;48772;55.586;37.730;2022-08-07T11:54:45;7.57;;;2.80;;
62711;SDS011;48772;55.586;37.730;2022-08-07T12:00:39;5.18;;;2.40;;
62711;SDS011;48772;55.586;37.730;2022-08-07T12:03:43;3.15;;;2.50;;
62711;SDS011;48772;55.586;37.730;2022-08-07T12:06:36;2.42;;;2.22;;
62711;SDS011;48772;55.586;37.730;2022-08-07T12:09:30;7.10;;;2.70;;
62711;SDS011;48772;55.586;37.730;2022-08-07T12:12:05;6.88;;;2.60;;
62711;SDS011;48772;55.586;37.730;2022-08-07T12:14:50;7.93;;;2.80;;
62711;SDS011;48772;55.586;37.730;2022-08-07T12:17:23;3.90;;;2.33;;
62711;SDS011;48772;55.586;37.730;2022-08-07T12:20:05;6.18;;;2.60;;
62711;SDS011;48772;55.586;37.730;2022-08-07T12:22:40;5.45;;;2.30;;
62711;SDS011;48772;55.586;37.730;2022-08-07T12:25:31;5.30;;;2.72;;
62711;SDS011;48772;55.586;37.730;2022-08-07T12:28:23;6.22;;;2.50;;
62711;SDS011;48772;55.586;37.730;2022-08-07T12:30:57;10.18;;;2.72;;
62711;SDS011;48772;55.586;37.730;2022-08-07T12:33:33;7.07;;;2.30;;
62711;SDS011;48772;55.586;37.730;2022-08-07T12:36:00;4.25;;;3.33;;
62711;SDS011;48772;55.586;37.730;2022-08-07T12:38:29;11.05;;;3.80;;
62711;SDS011;48772;55.586;37.730;2022-08-07T12:40:56;19.27;;;4.38;;
62711;SDS011;48772;55.586;37.730;2022-08-07T12:43:27;9.27;;;3.90;;
62711;SDS011;48772;55.586;37.730;2022-08-07T12:48:49;18.98;;;4.53;;
62711;SDS011;48772;55.586;37.730;2022-08-07T12:51:23;10.30;;;4.57;;
62711;SDS011;48772;55.586;37.730;2022-08-07T12:54:07;12.00;;;3.80;;
62711;SDS011;48772;55.586;37.730;2022-08-07T12:56:40;14.00;;;3.30;;
62711;SDS011;48772;55.586;37.730;2022-08-07T12:59:10;10.77;;;3.60;;
62711;SDS011;48772;55.586;37.730;2022-08-07T13:10:09;9.98;;;3.45;;
62711;SDS011;48772;55.586;37.730;2022-08-07T13:15:59;5.47;;;3.13;;
62711;SDS011;48772;55.586;37.730;2022-08-07T13:21:33;11.65;;;3.80;;
62711;SDS011;48772;55.586;37.730;2022-08-07T13:32:26;10.35;;;3.42;;
62711;SDS011;48772;55.586;37.730;2022-08-07T13:40:56;7.95;;;3.28;;
62711;SDS011;48772;55.586;37.730;2022-08-07T13:43:28;7.50;;;3.35;;
62711;SDS011;48772;55.586;37.730;2022-08-07T13:45:58;10.77;;;3.70;;
62711;SDS011;48772;55.586;37.730;2022-08-07T13:48:27;7.55;;;3.38;;
62711;SDS011;48772;55.586;37.730;2022-08-07T13:50:55;5.43;;;3.30;;
62711;SDS011;48772;55.586;37.730;2022-08-07T13:53:25;10.32;;;3.22;;
62711;SDS011;48772;55.586;37.730;2022-08-07T13:55:55;6.18;;;2.90;;
62711;SDS011;48772;55.586;37.730;2022-08-07T13:58:23;7.10;;;3.17;;
62711;SDS011;48772;55.586;37.730;2022-08-07T14:01:13;5.35;;;3.40;;
62711;SDS011;48772;55.586;37.730;2022-08-07T14:03:41;4.90;;;3.30;;
62711;SDS011;48772;55.586;37.730;2022-08-07T14:06:09;7.10;;;3.38;;
62711;SDS011;48772;55.586;37.730;2022-08-07T14:08:42;8.48;;;3.50;;
62711;SDS011;48772;55.586;37.730;2022-08-07T14:11:14;9.63;;;3.03;;
62711;SDS011;48772;55.586;37.730;2022-08-07T14:13:41;4.05;;;3.17;;
62711;SDS011;48772;55.586;37.730;2022-08-07T14:16:15;5.60;;;3.10;;
62711;SDS011;48772;55.586;37.730;2022-08-07T14:18:48;5.55;;;2.90;;
62711;SDS011;48772;55.586;37.730;2022-08-07T14:21:18;7.40;;;3.17;;
62711;SDS011;48772;55.586;37.730;2022-08-07T14:24:07;10.82;;;3.20;;
62711;SDS011;48772;55.586;37.730;2022-08-07T14:26:40;5.28;;;4.13;;
62711;SDS011;48772;55.586;37.730;2022-08-07T14:29:10;8.65;;;3.40;;
62711;SDS011;48772;55.586;37.730;2022-08-07T14:31:40;8.15;;;2.80;;
62711;SDS011;48772;55.586;37.730;2022-08-07T14:34:06;3.08;;;2.60;;
62711;SDS011;48772;55.586;37.730;2022-08-07T14:36:33;5.05;;;3.00;;
62711;SDS011;48772;55.586;37.730;2022-08-07T14:39:00;3.92;;;2.47;;
62711;SDS011;48772;55.586;37.730;2022-08-07T14:41:28;8.73;;;2.90;;
62711;SDS011;48772;55.586;37.730;2022-08-07T14:44:00;3.90;;;2.60;;
62711;SDS011;48772;55.586;37.730;2022-08-07T14:46:30;6.15;;;2.80;;
62711;SDS011;48772;55.586;37.730;2022-08-07T14:48:59;6.15;;;2.40;;
62711;SDS011;48772;55.586;37.730;2022-08-07T14:51:27;7.47;;;2.80;;
62711;SDS011;48772;55.586;37.730;2022-08-07T14:53:55;7.78;;;2.67;;
62711;SDS011;48772;55.586;37.730;2022-08-07T14:56:25;5.28;;;2.83;;
62711;SDS011;48772;55.586;37.730;2022-08-07T14:59:01;7.57;;;2.50;;
62711;SDS011;48772;55.586;37.730;2022-08-07T15:01:31;6.53;;;2.72;;
62711;SDS011;48772;55.586;37.730;2022-08-07T15:04:03;4.63;;;2.72;;
62711;SDS011;48772;55.586;37.730;2022-08-07T15:06:34;3.90;;;2.50;;
62711;SDS011;48772;55.586;37.730;2022-08-07T15:09:03;5.00;;;2.17;;
62711;SDS011;48772;55.586;37.730;2022-08-07T15:11:36;6.95;;;3.15;;
62711;SDS011;48772;55.586;37.730;2022-08-07T15:14:06;4.30;;;2.97;;
62711;SDS011;48772;55.586;37.730;2022-08-07T15:19:10;6.07;;;3.53;;
62711;SDS011;48772;55.586;37.730;2022-08-07T15:21:41;5.47;;;3.35;;
62711;SDS011;48772;55.586;37.730;2022-08-07T15:24:11;4.78;;;3.08;;
62711;SDS011;48772;55.586;37.730;2022-08-07T15:26:43;3.90;;;2.97;;
62711;SDS011;48772;55.586;37.730;2022-08-07T15:29:14;7.32;;;3.10;;
62711;SDS011;48772;55.586;37.730;2022-08-07T15:31:43;4.28;;;2.88;;
62711;SDS011;48772;55.586;37.730;2022-08-07T15:34:13;7.03;;;3.03;;
62711;SDS011;48772;55.586;37.730;2022-08-07T15:36:39;5.93;;;3.20;;
62711;SDS011;48772;55.586;37.730;2022-08-07T15:39:06;4.65;;;3.20;;
62711;SDS011;48772;55.586;37.730;2022-08-07T15:41:37;6.80;;;3.70;;
62711;SDS011;48772;55.586;37.730;2022-08-07T15:44:20;5.93;;;3.38;;
62711;SDS011;48772;55.586;37.730;2022-08-07T15:46:50;3.90;;;2.78;;
62711;SDS011;48772;55.586;37.730;2022-08-07T15:49:29;4.88;;;2.92;;
62711;SDS011;48772;55.586;37.730;2022-08-07T15:51:58;3.47;;;3.05;;
62711;SDS011;48772;55.586;37.730;2022-08-07T15:54:30;8.05;;;3.08;;
62711;SDS011;48772;55.586;37.730;2022-08-07T15:56:58;4.95;;;3.10;;
62711;SDS011;48772;55.586;37.730;2022-08-07T15:59:26;6.43;;;2.85;;
62711;SDS011;48772;55.586;37.730;2022-08-07T16:01:55;3.42;;;2.58;;
62711;SDS011;48772;55.586;37.730;2022-08-07T16:04:26;6.05;;;3.17;;
62711;SDS011;48772;55.586;37.730;2022-08-07T16:06:55;6.43;;;3.25;;
62711;SDS011;48772;55.586;37.730;2022-08-07T16:17:56;10.45;;;3.22;;
62711;SDS011;48772;55.586;37.730;2022-08-07T16:23:58;5.68;;;3.30;;
62711;SDS011;48772;55.586;37.730;2022-08-07T16:26:31;7.22;;;3.40;;
62711;SDS011;48772;55.586;37.730;2022-08-07T16:29:20;5.10;;;3.33;;
62711;SDS011;48772;55.586;37.730;2022-08-07T17:02:39;8.02;;;3.40;;
62711;SDS011;48772;55.586;37.730;2022-08-07T17:08:04;4.95;;;4.22;;
62711;SDS011;48772;55.586;37.730;2022-08-07T17:15:52;12.95;;;6.03;;
62711;SDS011;48772;55.586;37.730;2022-08-07T17:18:43;12.02;;;7.15;;
62711;SDS011;48772;55.586;37.730;2022-08-07T17:21:23;9.52;;;6.32;;
62711;SDS011;48772;55.586;37.730;2022-08-07T17:26:31;7.90;;;4.60;;
62711;SDS011;48772;55.586;37.730;2022-08-07T17:29:08;4.25;;;3.83;;
62711;SDS011;48772;55.586;37.730;2022-08-07T17:32:04;4.90;;;3.50;;
62711;SDS011;48772;55.586;37.730;2022-08-07T17:34:37;3.90;;;3.50;;
62711;SDS011;48772;55.586;37.730;2022-08-07T17:37:17;4.47;;;3.60;;
62711;SDS011;48772;55.586;37.730;2022-08-07T17:39:48;6.32;;;3.33;;
62711;SDS011;48772;55.586;37.730;2022-08-07T17:45:22;3.88;;;3.22;;
62711;SDS011;48772;55.586;37.730;2022-08-07T17:48:04;3.45;;;3.15;;
62711;SDS011;48772;55.586;37.730;2022-08-07T17:53:19;8.57;;;3.30;;
62711;SDS011;48772;55.586;37.730;2022-08-07T17:55:57;5.03;;;3.00;;
62711;SDS011;48772;55.586;37.730;2022-08-07T18:01:25;3.60;;;3.15;;
62711;SDS011;48772;55.586;37.730;2022-08-07T18:06:55;4.93;;;2.92;;
62711;SDS011;48772;55.586;37.730;2022-08-07T18:09:27;6.03;;;3.22;;
62711;SDS011;48772;55.586;37.730;2022-08-07T18:14:53;4.32;;;3.30;;
62711;SDS011;48772;55.586;37.730;2022-08-07T18:20:08;3.65;;;3.17;;
62711;SDS011;48772;55.586;37.730;2022-08-07T18:22:49;4.45;;;3.25;;
62711;SDS011;48772;55.586;37.730;2022-08-07T18:25:30;3.65;;;3.05;;
62711;SDS011;48772;55.586;37.730;2022-08-07T18:30:47;20.27;;;14.10;;
62711;SDS011;48772;55.586;37.730;2022-08-07T18:37:21;3.78;;;3.33;;
62711;SDS011;48772;55.586;37.730;2022-08-07T18:39:38;5.72;;;3.55;;
62711;SDS011;48772;55.586;37.730;2022-08-07T18:58:21;5.82;;;3.92;;
62711;SDS011;48772;55.586;37.730;2022-08-07T19:03:55;12.00;;;4.65;;
62711;SDS011;48772;55.586;37.730;2022-08-07T19:14:51;6.45;;;4.40;;
62711;SDS011;48772;55.586;37.730;2022-08-07T19:23:32;8.30;;;4.72;;
62711;SDS011;48772;55.586;37.730;2022-08-07T19:26:04;7.55;;;5.32;;
62711;SDS011;48772;55.586;37.730;2022-08-07T19:28:36;11.63;;;4.97;;
62711;SDS011;48772;55.586;37.730;2022-08-07T19:33:41;7.78;;;4.60;;